Santo Antonio do Jacinto, Brazil
Current Conditions -  °F | °C
As of 6:00 AM on Friday 28 Nov 2014 (Local Time) from SBPS Reporting Station
Few Clouds Few Clouds  
Wind Chill: 73°   Ceiling: Unl
Heat Index: 73°   Visibility: 6mi
Dew Point: 72°   Wind: 7mph
Humidity: 94%   Direction: 330°NNW
Pressure: 29.94"   Gusts: NA
Location:  16.53°S, 40.18°W
Report Text: SBPS 280900Z 33006KT 9999 FEW020 23/22 Q1014
Loading
Personal Weather Stations






























Interactive Weather Map New forecast layout! Learn more

10-Day Weather Forecast

Advertisements
Track Severe Weather on mobile